Maysville, Georgia
Current Conditions -  °F | °C
As of 3:35 PM on Friday 28 Nov 2014 (Local Time) from K19A Reporting Station
Clear Clear  
Wind Chill: 10°   Ceiling: Unl
Heat Index: 10°   Visibility: 10mi
Dew Point: -6°   Wind: 6mph
Humidity: 32%   Direction: 250°WSW
Pressure: 30.28"   Gusts: NA
Location:  34.25°N, 83.56°W
Report Text: K19A 282035Z AUTO 25005KT 10SM CLR 10/M06 A3028 RMK AO2
Loading
Personal Weather Stations






























Interactive Weather Map New forecast layout! Learn more

10-Day Weather Forecast

Advertisements
Track Severe Weather on mobile